Time,TemperatureF,DewpointF,PressureIn,WindDirection,WindDirectionDegrees,WindSpeedMPH,WindSpeedGustMPH,Humidity,HourlyPrecipIn,Conditions,Clouds,dailyrainin,SoftwareType,DateUTC
2013-01-26 00:06:00,34.5,34.0,29.96,WSW,250,0.0,0.0,99,0.00,,,0.00,weatherlink.com 1.10,2013-01-26 08:06:00,
2013-01-26 00:21:00,34.4,34.0,29.96,WSW,250,0.0,0.0,99,0.00,,,0.00,weatherlink.com 1.10,2013-01-26 08:21:00,
2013-01-26 00:36:00,34.3,34.0,29.96,WSW,250,0.0,0.0,99,0.00,,,0.00,weatherlink.com 1.10,2013-01-26 08:36:00,
2013-01-26 00:51:00,34.6,34.0,29.95,WSW,250,0.0,0.0,99,0.01,,,0.01,weatherlink.com 1.10,2013-01-26 08:51:00,
2013-01-26 01:06:00,34.4,34.0,29.95,WSW,250,0.0,0.0,99,0.01,,,0.01,weatherlink.com 1.10,2013-01-26 09:06:00,
2013-01-26 01:21:00,34.4,34.0,29.95,WSW,250,0.0,0.0,99,0.01,,,0.01,weatherlink.com 1.10,2013-01-26 09:21:00,
2013-01-26 01:36:00,34.3,34.0,29.94,WSW,250,0.0,0.0,99,0.04,,,0.04,weatherlink.com 1.10,2013-01-26 09:36:00,
2013-01-26 01:51:00,34.3,34.0,29.94,WSW,250,0.0,0.0,99,0.03,,,0.04,weatherlink.com 1.10,2013-01-26 09:51:00,
2013-01-26 02:07:00,34.2,34.0,29.93,WSW,250,0.0,0.0,99,0.03,,,0.04,weatherlink.com 1.10,2013-01-26 10:07:00,
2013-01-26 02:21:00,34.1,34.0,29.93,WSW,250,0.0,0.0,99,0.03,,,0.04,weatherlink.com 1.10,2013-01-26 10:21:00,
2013-01-26 02:37:00,34.2,34.0,29.92,SW,224,0.0,1.0,99,0.00,,,0.04,weatherlink.com 1.10,2013-01-26 10:37:00,
2013-01-26 02:52:00,34.1,34.0,29.92,SW,224,0.0,0.0,99,0.00,,,0.04,weatherlink.com 1.10,2013-01-26 10:52:00,
2013-01-26 03:07:00,34.2,34.0,29.92,SW,224,0.0,0.0,99,0.00,,,0.04,weatherlink.com 1.10,2013-01-26 11:07:00,
2013-01-26 03:24:00,34.1,34.0,29.91,SW,224,0.0,1.0,99,0.00,,,0.04,weatherlink.com 1.10,2013-01-26 11:24:00,
2013-01-26 03:37:00,34.2,34.0,29.90,SW,224,0.0,0.0,99,0.00,,,0.04,weatherlink.com 1.10,2013-01-26 11:37:00,
2013-01-26 03:52:00,34.2,34.0,29.90,SW,224,0.0,0.0,99,0.00,,,0.04,weatherlink.com 1.10,2013-01-26 11:52:00,
2013-01-26 04:07:00,34.3,34.0,29.90,SW,223,0.0,0.0,99,0.00,,,0.04,weatherlink.com 1.10,2013-01-26 12:07:00,
2013-01-26 04:22:00,34.2,34.0,29.91,SW,224,0.0,0.0,99,0.01,,,0.05,weatherlink.com 1.10,2013-01-26 12:22:00,
2013-01-26 04:37:00,34.8,35.0,29.91,East,98,0.0,0.0,99,0.03,,,0.07,weatherlink.com 1.10,2013-01-26 12:37:00,
2013-01-26 04:52:00,34.8,35.0,29.91,WNW,294,0.0,2.0,99,0.03,,,0.07,weatherlink.com 1.10,2013-01-26 12:52:00,
2013-01-26 05:07:00,36.3,36.0,29.91,South,187,1.0,7.0,99,0.04,,,0.08,weatherlink.com 1.10,2013-01-26 13:07:00,
2013-01-26 05:22:00,36.5,36.0,29.91,WSW,249,0.0,6.0,98,0.03,,,0.08,weatherlink.com 1.10,2013-01-26 13:22:00,
2013-01-26 05:37:00,36.3,36.0,29.91,South,170,0.0,4.0,98,0.02,,,0.09,weatherlink.com 1.10,2013-01-26 13:37:00,
2013-01-26 05:52:00,35.5,35.0,29.91,West,274,0.0,0.0,97,0.02,,,0.09,weatherlink.com 1.10,2013-01-26 13:52:00,
2013-01-26 06:07:00,35.2,35.0,29.91,North,1,0.0,1.0,98,0.01,,,0.09,weatherlink.com 1.10,2013-01-26 14:07:00,
2013-01-26 06:22:00,34.8,34.0,29.91,SE,143,0.0,1.0,98,0.01,,,0.09,weatherlink.com 1.10,2013-01-26 14:22:00,
2013-01-26 06:37:00,34.7,34.0,29.92,South,170,0.0,1.0,98,0.00,,,0.09,weatherlink.com 1.10,2013-01-26 14:37:00,
2013-01-26 06:52:00,34.5,34.0,29.92,WSW,245,0.0,0.0,98,0.00,,,0.09,weatherlink.com 1.10,2013-01-26 14:52:00,
2013-01-26 07:07:00,34.3,34.0,29.92,SW,214,0.0,1.0,98,0.00,,,0.09,weatherlink.com 1.10,2013-01-26 15:07:00,
2013-01-26 07:22:00,34.2,34.0,29.92,West,278,0.0,1.0,98,0.00,,,0.09,weatherlink.com 1.10,2013-01-26 15:22:00,
2013-01-26 07:37:00,34.3,34.0,29.93,West,278,0.0,0.0,99,0.00,,,0.09,weatherlink.com 1.10,2013-01-26 15:37:00,
2013-01-26 07:52:00,34.1,34.0,29.93,North,359,0.0,1.0,98,0.01,,,0.10,weatherlink.com 1.10,2013-01-26 15:52:00,
2013-01-26 08:07:00,34.3,34.0,29.92,NE,43,0.0,1.0,99,0.01,,,0.10,weatherlink.com 1.10,2013-01-26 16:07:00,
2013-01-26 08:22:00,34.3,34.0,29.91,NNE,13,0.0,3.0,99,0.01,,,0.10,weatherlink.com 1.10,2013-01-26 16:22:00,
2013-01-26 08:37:00,34.9,35.0,29.93,SW,218,0.0,4.0,99,0.01,,,0.10,weatherlink.com 1.10,2013-01-26 16:37:00,
2013-01-26 08:52:00,35.3,35.0,29.94,SSW,200,0.0,5.0,99,0.00,,,0.10,weatherlink.com 1.10,2013-01-26 16:52:00,
2013-01-26 09:07:00,35.7,35.0,29.94,West,276,1.0,3.0,98,0.00,,,0.10,weatherlink.com 1.10,2013-01-26 17:07:00,
2013-01-26 09:22:00,36.1,35.0,29.94,WNW,293,0.0,2.0,97,0.00,,,0.10,weatherlink.com 1.10,2013-01-26 17:22:00,
2013-01-26 09:37:00,36.3,36.0,29.95,East,92,0.0,3.0,97,0.00,,,0.10,weatherlink.com 1.10,2013-01-26 17:37:00,
2013-01-26 09:52:00,36.5,36.0,29.95,SSE,162,0.0,1.0,97,0.00,,,0.10,weatherlink.com 1.10,2013-01-26 17:52:00,
2013-01-26 10:07:00,36.4,36.0,29.94,ESE,104,0.0,1.0,97,0.00,,,0.10,weatherlink.com 1.10,2013-01-26 18:07:00,
2013-01-26 10:22:00,36.8,36.0,29.94,South,172,0.0,1.0,97,0.00,,,0.10,weatherlink.com 1.10,2013-01-26 18:22:00,
2013-01-26 10:37:00,37.6,37.0,29.93,SE,129,1.0,2.0,96,0.00,,,0.10,weatherlink.com 1.10,2013-01-26 18:37:00,
2013-01-26 10:52:00,38.2,37.0,29.95,SE,136,2.0,2.0,94,0.00,,,0.10,weatherlink.com 1.10,2013-01-26 18:52:00,
2013-01-26 11:08:00,37.7,36.0,29.95,SSE,153,1.0,4.0,95,0.00,,,0.10,weatherlink.com 1.10,2013-01-26 19:08:00,
2013-01-26 11:22:00,36.8,36.0,29.95,ESE,117,0.0,3.0,96,0.00,,,0.10,weatherlink.com 1.10,2013-01-26 19:22:00,
2013-01-26 11:53:00,35.7,35.0,29.93,SE,126,1.0,3.0,97,0.00,,,0.10,weatherlink.com 1.10,2013-01-26 19:53:00,
2013-01-26 12:07:00,36.2,36.0,29.93,East,101,0.0,4.0,98,0.00,,,0.10,weatherlink.com 1.10,2013-01-26 20:07:00,
2013-01-26 12:23:00,36.3,36.0,29.93,SE,127,0.0,3.0,97,0.00,,,0.10,weatherlink.com 1.10,2013-01-26 20:23:00,
2013-01-26 12:37:00,36.5,36.0,29.93,SE,143,0.0,3.0,96,0.00,,,0.10,weatherlink.com 1.10,2013-01-26 20:37:00,
2013-01-26 12:52:00,36.8,36.0,29.93,South,191,2.0,5.0,96,0.00,,,0.10,weatherlink.com 1.10,2013-01-26 20:52:00,
2013-01-26 13:07:00,37.0,36.0,29.92,West,276,0.0,3.0,96,0.00,,,0.10,weatherlink.com 1.10,2013-01-26 21:07:00,
2013-01-26 13:22:00,37.2,36.0,29.92,ESE,107,0.0,2.0,95,0.00,,,0.10,weatherlink.com 1.10,2013-01-26 21:22:00,
2013-01-26 13:37:00,36.4,35.0,29.91,SSW,207,0.0,4.0,95,0.01,,,0.11,weatherlink.com 1.10,2013-01-26 21:37:00,
2013-01-26 13:53:00,36.5,36.0,29.91,SW,226,0.0,0.0,96,0.01,,,0.11,weatherlink.com 1.10,2013-01-26 21:53:00,
2013-01-26 14:07:00,37.0,36.0,29.91,East,91,0.0,1.0,96,0.02,,,0.12,weatherlink.com 1.10,2013-01-26 22:07:00,
2013-01-26 14:22:00,37.2,36.0,29.91,ENE,67,0.0,0.0,96,0.02,,,0.12,weatherlink.com 1.10,2013-01-26 22:22:00,
2013-01-26 14:38:00,37.1,36.0,29.91,WSW,245,2.0,3.0,95,0.01,,,0.12,weatherlink.com 1.10,2013-01-26 22:38:00,
2013-01-26 14:52:00,35.8,35.0,29.92,ESE,116,0.0,3.0,95,0.01,,,0.12,weatherlink.com 1.10,2013-01-26 22:52:00,
2013-01-26 15:07:00,35.1,34.0,29.92,SSE,166,0.0,1.0,96,0.01,,,0.13,weatherlink.com 1.10,2013-01-26 23:07:00,
2013-01-26 15:22:00,35.0,34.0,29.92,East,101,0.0,1.0,96,0.02,,,0.14,weatherlink.com 1.10,2013-01-26 23:22:00,
2013-01-26 15:38:00,34.9,34.0,29.92,ESE,102,0.0,0.0,97,0.02,,,0.14,weatherlink.com 1.10,2013-01-26 23:38:00,
2013-01-26 15:52:00,34.7,34.0,29.92,ESE,107,0.0,1.0,97,0.02,,,0.14,weatherlink.com 1.10,2013-01-26 23:52:00,
2013-01-26 16:08:00,34.8,34.0,29.92,ESE,107,0.0,0.0,97,0.01,,,0.14,weatherlink.com 1.10,2013-01-27 00:08:00,
2013-01-26 16:23:00,34.9,34.0,29.92,ESE,110,0.0,1.0,97,0.01,,,0.15,weatherlink.com 1.10,2013-01-27 00:23:00,
2013-01-26 16:37:00,34.9,34.0,29.92,ESE,115,0.0,1.0,97,0.01,,,0.15,weatherlink.com 1.10,2013-01-27 00:37:00,
2013-01-26 16:52:00,34.9,34.0,29.91,ENE,78,0.0,0.0,97,0.01,,,0.15,weatherlink.com 1.10,2013-01-27 00:52:00,
2013-01-26 17:08:00,34.7,34.0,29.92,ENE,77,0.0,0.0,97,0.01,,,0.15,weatherlink.com 1.10,2013-01-27 01:08:00,
2013-01-26 17:23:00,34.5,34.0,29.93,SSE,155,0.0,1.0,97,0.00,,,0.15,weatherlink.com 1.10,2013-01-27 01:23:00,
2013-01-26 17:38:00,34.2,34.0,29.94,West,269,0.0,4.0,97,0.00,,,0.15,weatherlink.com 1.10,2013-01-27 01:38:00,
2013-01-26 17:53:00,33.8,33.0,29.93,East,96,0.0,1.0,97,0.00,,,0.15,weatherlink.com 1.10,2013-01-27 01:53:00,
2013-01-26 18:08:00,33.5,33.0,29.93,East,96,0.0,0.0,98,0.00,,,0.15,weatherlink.com 1.10,2013-01-27 02:08:00,
2013-01-26 18:23:00,33.5,33.0,29.93,East,96,0.0,0.0,98,0.00,,,0.15,weatherlink.com 1.10,2013-01-27 02:23:00,
2013-01-26 18:38:00,33.5,33.0,29.93,East,96,0.0,0.0,98,0.00,,,0.15,weatherlink.com 1.10,2013-01-27 02:38:00,
2013-01-26 18:53:00,33.5,33.0,29.93,East,96,0.0,0.0,98,0.00,,,0.15,weatherlink.com 1.10,2013-01-27 02:53:00,
2013-01-26 19:08:00,33.2,33.0,29.93,East,96,0.0,0.0,98,0.00,,,0.15,weatherlink.com 1.10,2013-01-27 03:08:00,
2013-01-26 19:23:00,33.3,33.0,29.93,East,96,0.0,0.0,98,0.00,,,0.15,weatherlink.com 1.10,2013-01-27 03:23:00,
2013-01-26 19:38:00,33.3,33.0,29.94,East,96,0.0,0.0,99,0.00,,,0.15,weatherlink.com 1.10,2013-01-27 03:38:00,
2013-01-26 19:53:00,33.5,33.0,29.93,ESE,107,0.0,1.0,99,0.00,,,0.15,weatherlink.com 1.10,2013-01-27 03:53:00,
2013-01-26 20:08:00,33.5,33.0,29.93,ESE,115,0.0,1.0,99,0.00,,,0.15,weatherlink.com 1.10,2013-01-27 04:08:00,
2013-01-26 20:23:00,33.5,33.0,29.94,ESE,115,0.0,0.0,98,0.00,,,0.15,weatherlink.com 1.10,2013-01-27 04:23:00,
2013-01-26 20:38:00,33.5,33.0,29.94,ESE,115,0.0,0.0,98,0.00,,,0.15,weatherlink.com 1.10,2013-01-27 04:38:00,
2013-01-26 20:53:00,33.3,33.0,29.94,ESE,115,0.0,0.0,98,0.00,,,0.15,weatherlink.com 1.10,2013-01-27 04:53:00,
2013-01-26 21:08:00,33.3,33.0,29.95,ESE,115,0.0,0.0,98,0.00,,,0.15,weatherlink.com 1.10,2013-01-27 05:08:00,
2013-01-26 21:23:00,33.4,33.0,29.95,ESE,115,0.0,1.0,98,0.00,,,0.15,weatherlink.com 1.10,2013-01-27 05:23:00,
2013-01-26 21:38:00,33.3,33.0,29.95,ESE,115,0.0,0.0,98,0.00,,,0.15,weatherlink.com 1.10,2013-01-27 05:38:00,
2013-01-26 21:53:00,33.3,33.0,29.95,ESE,116,0.0,0.0,99,0.00,,,0.15,weatherlink.com 1.10,2013-01-27 05:53:00,
2013-01-26 22:08:00,33.4,33.0,29.95,ESE,115,0.0,0.0,99,0.00,,,0.15,weatherlink.com 1.10,2013-01-27 06:08:00,
2013-01-26 22:23:00,33.4,33.0,29.95,ESE,115,0.0,0.0,99,0.00,,,0.15,weatherlink.com 1.10,2013-01-27 06:23:00,
2013-01-26 23:08:00,33.5,33.0,29.96,SSE,164,0.0,0.0,98,0.00,,,0.15,weatherlink.com 1.10,2013-01-27 07:08:00,
2013-01-26 23:23:00,33.4,33.0,29.96,SSE,159,0.0,1.0,98,0.00,,,0.15,weatherlink.com 1.10,2013-01-27 07:23:00,
2013-01-26 23:38:00,33.5,33.0,29.96,SE,143,0.0,0.0,98,0.00,,,0.15,weatherlink.com 1.10,2013-01-27 07:38:00,
2013-01-26 23:53:00,33.5,33.0,29.96,South,169,0.0,1.0,98,0.00,,,0.15,weatherlink.com 1.10,2013-01-27 07:53:00,